SPCL

Cap FAP David Abenzur Rengifo International Airport

Pucallpa, Peru
SPCL 162300Z 1700/1724 01004KT 9999 SCT017 BKN080 TX30/1719Z TN23/1711Z TEMPO 1702/1706 08010KT 4000 RADZ BKN010 FEW020CB BKN070 TEMPO 1708/1712 8000 DZRA BKN015 OVC080 BECMG 1713/1715 BKN020 BKN080 TEMPO 1718/1722 06010KT 4000 SHRA BKN015 FEW025TCU BKN070
Issued Valid From Valid To
Jan-16 @ 23:00 UTC
(6 hours ago)
Jan-17 @ 00:00 UTC
(5 hours ago)
Jan-18 @ 00:00 UTC
(in 19 hours)
Jan-17 @ 00:00 to Jan-17 @ 13:00
SPCL 162300Z 1700/1724 01004KT 9999 SCT017 BKN080 TX30/1719Z TN23/1711Z
Wind Visibility Clouds
10° at 4 knots 10,000+ meters
  • Scattered at 1,700' AGL
  • Broken at 8,000' AGL
Temporary Jan-17 @ 02:00 to Jan-17 @ 06:00
TEMPO 1702/1706 08010KT 4000 RADZ BKN010 FEW020CB BKN070
Wind Visibility Clouds Conditions
80° at 10 knots 4,007 meters
  • Broken at 1,000' AGL
  • Few at 2,000' AGL
  • Broken at 7,000' AGL
  • Rain
  • Drizzle
Temporary Jan-17 @ 08:00 to Jan-17 @ 12:00
TEMPO 1708/1712 8000 DZRA BKN015 OVC080
Visibility Clouds Conditions
7,998 meters
  • Broken at 1,500' AGL
  • Overcast at 8,000' AGL
  • Drizzle
  • Rain
Becoming Jan-17 @ 13:00 to Jan-18 @ 00:00
BECMG 1713/1715 BKN020 BKN080
Wind Visibility Clouds
10° at 4 knots 10,000+ meters
  • Broken at 2,000' AGL
  • Broken at 8,000' AGL
Temporary Jan-17 @ 18:00 to Jan-17 @ 22:00
TEMPO 1718/1722 06010KT 4000 SHRA BKN015 FEW025TCU BKN070
Wind Visibility Clouds Conditions
60° at 10 knots 4,007 meters
  • Broken at 1,500' AGL
  • Few at 2,500' AGL
  • Broken at 7,000' AGL
  • Rain
SPCL 162300Z 1700/1724 01004KT 9999 SCT017 BKN080 TX30/1719Z TN23/1711Z TEMPO 1702/1706 08010KT 4000 RADZ BKN010 FEW020CB BKN070 TEMPO 1708/1712 8000 DZRA BKN015 OVC080 BECMG 1713/1715 BKN020 BKN080 TEMPO 1718/1722 06010KT 4000 SHRA BKN015 FEW025TCU BKN070
Issued Jan-16 @ 23:00 UTC
(6 hours ago)
Valid From Jan-17 @ 00:00 UTC
(5 hours ago)
Valid To Jan-18 @ 00:00 UTC
(in 19 hours)
Jan-17 @ 00:00 - Jan-17 @ 13:00
Wind Visibility
10° at 4 knots 10,000+ meters
Clouds
  • Scattered at 1,700' AGL
  • Broken at 8,000' AGL
Temporary Jan-17 @ 02:00 - Jan-17 @ 06:00
Wind Visibility
80° at 10 knots 4,007 meters
Clouds
  • Broken at 1,000' AGL
  • Few at 2,000' AGL
  • Broken at 7,000' AGL
Conditions
  • Rain
  • Drizzle
Temporary Jan-17 @ 08:00 - Jan-17 @ 12:00
Clouds
  • Broken at 1,500' AGL
  • Overcast at 8,000' AGL
Conditions
  • Drizzle
  • Rain
Becoming Jan-17 @ 13:00 - Jan-18 @ 00:00
Wind Visibility
10° at 4 knots 10,000+ meters
Clouds
  • Broken at 2,000' AGL
  • Broken at 8,000' AGL
Temporary Jan-17 @ 18:00 - Jan-17 @ 22:00
Wind Visibility
60° at 10 knots 4,007 meters
Clouds
  • Broken at 1,500' AGL
  • Few at 2,500' AGL
  • Broken at 7,000' AGL
Conditions
  • Rain